createdAt,value
2022-08-07T00:00:46.878Z,1.70
2022-08-07T00:03:36.877Z,1.80
2022-08-07T00:06:32.884Z,2.00
2022-08-07T00:09:26.637Z,1.90
2022-08-07T00:12:21.706Z,2.10
2022-08-07T00:15:12.301Z,1.80
2022-08-07T00:18:03.452Z,1.60
2022-08-07T00:20:53.381Z,1.80
2022-08-07T00:23:42.424Z,1.70
2022-08-07T00:26:48.691Z,1.90
2022-08-07T00:29:39.578Z,2.10
2022-08-07T00:32:29.527Z,1.60
2022-08-07T00:35:23.481Z,2.07
2022-08-07T00:38:12.999Z,1.90
2022-08-07T00:41:01.818Z,2.10
2022-08-07T00:43:59.858Z,2.10
2022-08-07T00:46:50.742Z,2.50
2022-08-07T00:50:19.780Z,2.07
2022-08-07T00:52:49.643Z,2.03
2022-08-07T00:56:02.723Z,2.20
2022-08-07T00:58:50.400Z,2.37
2022-08-07T01:01:41.546Z,2.10
2022-08-07T01:04:35.505Z,2.30
2022-08-07T01:07:32.919Z,2.20
2022-08-07T01:10:22.266Z,2.40
2022-08-07T01:13:11.120Z,2.10
2022-08-07T01:16:06.350Z,2.43
2022-08-07T01:18:55.272Z,2.37
2022-08-07T01:21:45.732Z,2.00
2022-08-07T01:24:35.386Z,2.10
2022-08-07T01:27:23.957Z,2.33
2022-08-07T01:30:20.784Z,2.43
2022-08-07T01:33:16.204Z,2.17
2022-08-07T01:36:08.761Z,2.33
2022-08-07T01:39:00.313Z,2.07
2022-08-07T01:42:07.437Z,2.70
2022-08-07T01:44:57.761Z,2.60
2022-08-07T01:48:21.305Z,2.80
2022-08-07T01:50:58.945Z,2.50
2022-08-07T01:54:09.534Z,2.30
2022-08-07T01:57:03.607Z,2.20
2022-08-07T01:59:55.534Z,1.90
2022-08-07T02:03:18.803Z,2.20
2022-08-07T02:06:01.020Z,2.53
2022-08-07T02:08:54.383Z,2.40
2022-08-07T02:12:02.889Z,2.57
2022-08-07T02:14:57.535Z,3.33
2022-08-07T02:17:49.456Z,2.70
2022-08-07T02:20:38.645Z,2.40
2022-08-07T02:23:30.438Z,2.60
2022-08-07T02:26:34.349Z,2.90
2022-08-07T02:29:23.388Z,2.20
2022-08-07T02:32:14.205Z,2.77
2022-08-07T02:35:09.053Z,2.53
2022-08-07T02:37:59.151Z,2.70
2022-08-07T02:40:51.501Z,2.70
2022-08-07T02:43:47.706Z,2.50
2022-08-07T02:46:38.148Z,2.50
2022-08-07T02:49:56.109Z,2.67
2022-08-07T02:52:49.012Z,3.10
2022-08-07T02:56:04.195Z,2.17
2022-08-07T02:58:54.134Z,2.50
2022-08-07T03:01:47.234Z,2.20
2022-08-07T03:04:37.425Z,2.60
2022-08-07T03:07:58.872Z,2.80
2022-08-07T03:10:36.273Z,2.33
2022-08-07T03:13:29.815Z,2.87
2022-08-07T03:16:28.069Z,2.13
2022-08-07T03:19:16.631Z,2.50
2022-08-07T03:22:18.622Z,2.67
2022-08-07T03:25:10.416Z,2.70
2022-08-07T03:28:09.470Z,2.53
2022-08-07T03:31:24.871Z,2.90
2022-08-07T03:34:31.594Z,2.83
2022-08-07T03:37:32.822Z,2.67
2022-08-07T03:40:36.289Z,2.90
2022-08-07T03:43:26.440Z,2.73
2022-08-07T03:46:18.155Z,2.43
2022-08-07T03:49:08.881Z,2.53
2022-08-07T03:52:01.801Z,2.80
2022-08-07T03:54:55.159Z,2.70
2022-08-07T03:59:05.150Z,2.70
2022-08-07T04:01:00.328Z,2.53
2022-08-07T04:03:55.004Z,2.90
2022-08-07T04:06:44.239Z,3.00
2022-08-07T04:09:44.585Z,2.80
2022-08-07T04:12:35.732Z,2.73
2022-08-07T04:15:24.616Z,3.20
2022-08-07T04:18:57.571Z,2.80
2022-08-07T04:21:22.958Z,3.00
2022-08-07T04:24:30.423Z,2.57
2022-08-07T04:27:25.617Z,3.03
2022-08-07T04:30:21.510Z,3.03
2022-08-07T04:33:26.020Z,3.33
2022-08-07T04:36:17.511Z,2.87
2022-08-07T04:39:14.906Z,3.67
2022-08-07T04:42:06.992Z,2.93
2022-08-07T04:45:03.222Z,3.10
2022-08-07T04:48:10.345Z,3.30
2022-08-07T04:51:04.430Z,3.17
2022-08-07T04:54:06.103Z,3.40
2022-08-07T04:58:07.964Z,3.13
2022-08-07T05:00:17.276Z,3.00
2022-08-07T05:03:59.777Z,2.90
2022-08-07T05:06:43.625Z,3.13
2022-08-07T05:09:45.323Z,2.77
2022-08-07T05:12:53.068Z,2.67
2022-08-07T05:15:45.145Z,3.10
2022-08-07T05:18:36.993Z,3.03
2022-08-07T05:21:59.445Z,3.00
2022-08-07T05:24:39.513Z,2.80
2022-08-07T05:28:02.873Z,2.87
2022-08-07T05:30:39.852Z,2.77
2022-08-07T05:33:29.783Z,3.00
2022-08-07T05:36:22.711Z,2.80
2022-08-07T05:40:13.821Z,2.90
2022-08-07T05:42:34.715Z,3.10
2022-08-07T05:45:46.324Z,3.07
2022-08-07T05:48:34.841Z,2.87
2022-08-07T05:51:25.124Z,3.17
2022-08-07T05:54:30.653Z,2.77
2022-08-07T05:57:21.163Z,2.50
2022-08-07T06:00:16.659Z,2.30
2022-08-07T06:03:07.207Z,2.50
2022-08-07T06:05:56.692Z,2.03
2022-08-07T06:08:47.017Z,1.90
2022-08-07T06:11:40.316Z,2.20
2022-08-07T06:14:30.263Z,1.80
2022-08-07T06:17:22.408Z,2.10
2022-08-07T06:20:25.575Z,1.70
2022-08-07T06:23:46.680Z,1.60
2022-08-07T06:26:30.726Z,1.50
2022-08-07T06:29:19.222Z,1.60
2022-08-07T06:32:08.392Z,1.40
2022-08-07T06:34:56.900Z,1.90
2022-08-07T06:37:45.653Z,1.57
2022-08-07T06:40:38.542Z,2.03
2022-08-07T06:43:39.533Z,1.40
2022-08-07T06:46:35.297Z,1.50
2022-08-07T06:49:24.139Z,1.47
2022-08-07T06:52:17.041Z,1.40
2022-08-07T06:55:33.101Z,1.80
2022-08-07T06:58:34.455Z,2.00
2022-08-07T07:01:25.574Z,1.90
2022-08-07T07:04:32.724Z,1.70
2022-08-07T07:07:59.357Z,2.00
2022-08-07T07:10:33.334Z,1.57
2022-08-07T07:13:55.424Z,1.60
2022-08-07T07:16:49.947Z,1.80
2022-08-07T07:19:57.408Z,2.00
2022-08-07T07:24:09.092Z,2.00
2022-08-07T07:26:34.632Z,2.03
2022-08-07T07:29:38.536Z,2.07
2022-08-07T07:32:23.103Z,2.17
2022-08-07T07:35:12.833Z,2.27
2022-08-07T07:38:04.887Z,2.20
2022-08-07T07:41:01.465Z,1.63
2022-08-07T07:44:16.949Z,1.80
2022-08-07T07:47:14.259Z,2.00
2022-08-07T07:50:33.099Z,2.00
2022-08-07T07:53:25.726Z,2.20
2022-08-07T07:56:15.321Z,1.97
2022-08-07T07:59:06.339Z,2.10
2022-08-07T08:02:03.297Z,2.20
2022-08-07T08:04:54.145Z,2.10
2022-08-07T08:07:59.542Z,2.10
2022-08-07T08:10:49.748Z,2.40
2022-08-07T08:13:53.742Z,2.00
2022-08-07T08:16:50.470Z,3.10
2022-08-07T08:20:18.026Z,2.23
2022-08-07T08:23:09.445Z,1.90
2022-08-07T08:26:18.320Z,2.27
2022-08-07T08:29:08.296Z,2.30
2022-08-07T08:31:59.061Z,2.17
2022-08-07T08:35:08.834Z,2.10
2022-08-07T08:38:03.496Z,2.50
2022-08-07T08:40:57.543Z,2.43
2022-08-07T08:43:56.205Z,1.90
2022-08-07T08:47:06.304Z,1.90
2022-08-07T08:50:06.030Z,2.20
2022-08-07T08:52:57.592Z,2.10
2022-08-07T08:55:55.121Z,2.70
2022-08-07T08:58:54.443Z,1.77
2022-08-07T09:01:49.133Z,2.47
2022-08-07T09:04:25.900Z,2.13
2022-08-07T09:07:24.448Z,2.00
2022-08-07T09:10:19.149Z,1.80
2022-08-07T09:13:15.271Z,2.33
2022-08-07T09:16:20.276Z,2.40
2022-08-07T09:19:51.441Z,2.20
2022-08-07T09:24:31.059Z,1.90
2022-08-07T09:26:20.662Z,2.40
2022-08-07T09:30:03.367Z,1.97
2022-08-07T09:32:33.277Z,2.27
2022-08-07T09:36:05.425Z,2.10
2022-08-07T09:38:50.104Z,2.00
2022-08-07T09:42:02.948Z,1.90
2022-08-07T09:47:25.317Z,2.13
2022-08-07T09:48:29.666Z,1.90
2022-08-07T09:51:14.758Z,1.43
2022-08-07T09:54:03.435Z,1.97
2022-08-07T09:56:50.913Z,1.87
2022-08-07T09:59:46.127Z,1.40
2022-08-07T10:02:55.753Z,1.40
2022-08-07T10:05:59.101Z,1.40
2022-08-07T10:08:45.224Z,1.50
2022-08-07T10:12:01.359Z,1.70
2022-08-07T10:14:33.428Z,1.70
2022-08-07T10:17:16.691Z,1.50
2022-08-07T10:20:06.932Z,1.43
2022-08-07T10:23:03.307Z,1.90
2022-08-07T10:25:53.079Z,1.60
2022-08-07T10:28:36.799Z,1.43
2022-08-07T10:31:17.709Z,2.17
2022-08-07T10:34:05.572Z,1.30
2022-08-07T10:36:52.851Z,1.50
2022-08-07T10:40:02.963Z,1.47
2022-08-07T10:42:38.532Z,2.20
2022-08-07T10:45:17.740Z,2.07
2022-08-07T10:47:59.887Z,1.40
2022-08-07T10:50:35.754Z,1.37
2022-08-07T10:53:11.090Z,1.67
2022-08-07T10:55:46.625Z,2.10
2022-08-07T10:58:36.739Z,1.40
2022-08-07T11:01:35.658Z,1.50
2022-08-07T11:04:32.254Z,1.40
2022-08-07T11:07:15.019Z,1.33
2022-08-07T11:10:09.237Z,1.30
2022-08-07T11:12:45.861Z,1.53
2022-08-07T11:15:32.340Z,1.30
2022-08-07T11:18:05.387Z,1.30
2022-08-07T11:20:38.999Z,1.20
2022-08-07T11:23:26.212Z,1.50
2022-08-07T11:26:11.259Z,1.30
2022-08-07T11:28:55.391Z,1.80
2022-08-07T11:31:35.147Z,1.43
2022-08-07T11:34:10.206Z,1.10
2022-08-07T11:36:50.989Z,1.43
2022-08-07T11:40:00.726Z,1.30
2022-08-07T11:42:29.694Z,1.13
2022-08-07T11:45:03.562Z,1.20
2022-08-07T11:47:56.662Z,1.03
2022-08-07T11:50:36.386Z,1.10
2022-08-07T11:53:25.345Z,1.17
2022-08-07T11:56:24.823Z,1.30
2022-08-07T12:00:08.861Z,1.10
2022-08-07T12:02:02.385Z,1.10
2022-08-07T12:04:39.790Z,1.80
2022-08-07T12:07:20.199Z,2.03
2022-08-07T12:10:02.186Z,1.40
2022-08-07T12:12:37.833Z,1.33
2022-08-07T12:15:17.218Z,1.10
2022-08-07T12:18:11.294Z,3.07
2022-08-07T12:20:49.319Z,3.00
2022-08-07T12:24:05.134Z,1.43
2022-08-07T12:26:30.865Z,1.10
2022-08-07T12:29:14.026Z,1.10
2022-08-07T12:32:01.628Z,1.20
2022-08-07T12:34:34.138Z,1.00
2022-08-07T12:37:08.170Z,1.30
2022-08-07T12:39:42.439Z,0.90
2022-08-07T12:42:14.265Z,1.00
2022-08-07T12:44:50.373Z,1.10
2022-08-07T12:47:30.508Z,1.20
2022-08-07T12:50:33.828Z,1.33
2022-08-07T12:52:58.609Z,1.70
2022-08-07T12:55:40.997Z,1.10
2022-08-07T12:58:21.788Z,1.10
2022-08-07T13:01:04.056Z,1.07
2022-08-07T13:03:54.983Z,1.20
2022-08-07T13:06:36.443Z,1.43
2022-08-07T13:10:20.747Z,1.13
2022-08-07T13:12:26.833Z,1.30
2022-08-07T13:15:00.818Z,1.23
2022-08-07T13:17:39.974Z,1.10
2022-08-07T13:20:17.713Z,1.30
2022-08-07T13:23:59.953Z,1.23
2022-08-07T13:26:25.531Z,1.30
2022-08-07T13:29:18.030Z,1.10
2022-08-07T13:32:32.398Z,0.90
2022-08-07T13:36:00.361Z,1.20
2022-08-07T13:38:45.787Z,1.20
2022-08-07T13:41:41.594Z,1.00
2022-08-07T13:44:34.718Z,1.27
2022-08-07T13:48:07.745Z,1.40
2022-08-07T13:51:00.583Z,2.03
2022-08-07T13:54:01.715Z,3.60
2022-08-07T13:56:59.462Z,1.10
2022-08-07T13:59:54.951Z,1.20
2022-08-07T14:02:54.135Z,1.20
2022-08-07T14:05:46.235Z,1.30
2022-08-07T14:08:41.769Z,1.30
2022-08-07T14:11:53.595Z,1.00
2022-08-07T14:14:52.679Z,1.13
2022-08-07T14:18:13.642Z,0.90
2022-08-07T14:21:11.777Z,1.20
2022-08-07T14:24:15.170Z,1.00
2022-08-07T14:28:11.704Z,1.10
2022-08-07T14:30:15.266Z,1.00
2022-08-07T14:33:23.294Z,1.00
2022-08-07T14:36:14.979Z,1.10
2022-08-07T14:39:04.459Z,1.00
2022-08-07T14:42:20.142Z,1.00
2022-08-07T14:45:22.021Z,0.90
2022-08-07T14:48:19.842Z,1.00
2022-08-07T14:51:15.637Z,1.13
2022-08-07T14:57:55.221Z,1.00
2022-08-07T15:00:43.504Z,1.00
2022-08-07T15:03:51.684Z,1.10
2022-08-07T15:06:47.584Z,1.07
2022-08-07T15:09:58.313Z,1.20
2022-08-07T15:12:54.856Z,1.10
2022-08-07T15:18:56.933Z,3.67
2022-08-07T15:22:04.217Z,1.17
2022-08-07T15:25:16.382Z,1.10
2022-08-07T15:28:32.318Z,1.17
2022-08-07T15:34:29.490Z,1.10
2022-08-07T15:37:27.975Z,1.00
2022-08-07T15:43:53.742Z,1.00
2022-08-07T15:46:51.811Z,1.10
2022-08-07T15:50:05.022Z,1.10
2022-08-07T15:52:52.681Z,0.90
2022-08-07T15:55:53.416Z,1.00
2022-08-07T15:58:53.493Z,1.40
2022-08-07T16:01:46.376Z,1.13
2022-08-07T16:04:56.338Z,1.17
2022-08-07T16:08:32.669Z,1.30
2022-08-07T16:11:02.557Z,1.10
2022-08-07T16:14:03.265Z,1.30
2022-08-07T16:17:15.065Z,1.10
2022-08-07T16:20:33.985Z,1.10
2022-08-07T16:23:53.689Z,1.00
2022-08-07T16:26:59.568Z,1.30
2022-08-07T16:30:09.926Z,1.83
2022-08-07T16:34:02.931Z,1.20
2022-08-07T16:36:23.075Z,1.60
2022-08-07T16:39:33.759Z,1.40
2022-08-07T16:42:44.981Z,1.10
2022-08-07T16:46:21.088Z,1.07
2022-08-07T16:50:27.931Z,1.03
2022-08-07T16:54:01.769Z,1.13
2022-08-07T16:56:37.479Z,1.20
2022-08-07T16:59:47.149Z,1.00
2022-08-07T17:03:06.358Z,1.10
2022-08-07T17:06:29.573Z,1.40
2022-08-07T17:10:04.994Z,2.30
2022-08-07T17:12:44.600Z,2.60
2022-08-07T17:15:43.840Z,2.20
2022-08-07T17:18:46.155Z,1.40
2022-08-07T17:21:50.744Z,1.70
2022-08-07T17:24:52.879Z,2.40
2022-08-07T17:27:51.240Z,1.30
2022-08-07T17:30:57.574Z,1.20
2022-08-07T17:34:15.025Z,3.67
2022-08-07T17:37:09.652Z,1.20
2022-08-07T17:40:18.942Z,1.47
2022-08-07T17:44:00.910Z,1.80
2022-08-07T17:46:40.191Z,10.63
2022-08-07T17:49:44.875Z,6.20
2022-08-07T17:52:39.733Z,2.20
2022-08-07T17:55:55.949Z,1.40
2022-08-07T17:58:47.101Z,3.43
2022-08-07T18:01:46.221Z,2.30
2022-08-07T18:04:46.313Z,1.87
2022-08-07T18:07:43.887Z,4.30
2022-08-07T18:12:07.902Z,2.07
2022-08-07T18:13:53.123Z,1.57
2022-08-07T18:16:57.387Z,2.10
2022-08-07T18:21:09.408Z,1.87
2022-08-07T18:23:21.695Z,1.10
2022-08-07T18:26:19.904Z,1.50
2022-08-07T18:30:06.695Z,1.60
2022-08-07T18:32:46.150Z,1.23
2022-08-07T18:35:51.724Z,1.23
2022-08-07T18:38:57.998Z,1.47
2022-08-07T18:41:56.342Z,1.47
2022-08-07T18:45:42.763Z,1.60
2022-08-07T18:50:05.462Z,1.20
2022-08-07T18:52:25.628Z,1.43
2022-08-07T18:54:52.952Z,1.20
2022-08-07T18:57:58.650Z,1.30
2022-08-07T19:00:54.991Z,2.37
2022-08-07T19:03:56.412Z,1.60
2022-08-07T19:06:54.628Z,1.80
2022-08-07T19:09:54.876Z,1.90
2022-08-07T19:12:58.292Z,1.40
2022-08-07T19:16:43.153Z,1.87
2022-08-07T19:19:26.759Z,1.70
2022-08-07T19:22:31.408Z,1.50
2022-08-07T19:26:24.351Z,1.30
2022-08-07T19:30:54.737Z,1.20
2022-08-07T19:32:11.553Z,1.90
2022-08-07T19:35:00.739Z,1.63
2022-08-07T19:37:56.462Z,1.80
2022-08-07T19:40:50.161Z,2.00
2022-08-07T19:43:51.988Z,1.70
2022-08-07T19:46:55.676Z,1.60
2022-08-07T19:49:58.169Z,1.50
2022-08-07T19:52:59.262Z,1.60
2022-08-07T19:55:57.720Z,2.07
2022-08-07T19:58:53.213Z,1.60
2022-08-07T20:01:57.291Z,1.80
2022-08-07T20:04:49.329Z,1.60
2022-08-07T20:07:46.523Z,1.60
2022-08-07T20:10:54.395Z,1.50
2022-08-07T20:13:46.818Z,1.70
2022-08-07T20:16:36.845Z,1.60
2022-08-07T20:19:47.587Z,1.60
2022-08-07T20:22:40.754Z,1.90
2022-08-07T20:25:31.847Z,1.73
2022-08-07T20:28:31.851Z,1.90
2022-08-07T20:31:23.120Z,2.07
2022-08-07T20:34:13.589Z,1.70
2022-08-07T20:37:05.526Z,1.50
2022-08-07T20:40:02.560Z,1.90
2022-08-07T20:42:56.625Z,1.73
2022-08-07T20:46:27.636Z,1.67
2022-08-07T20:49:58.516Z,1.40
2022-08-07T20:52:17.345Z,1.40
2022-08-07T20:55:11.028Z,1.97
2022-08-07T20:58:03.359Z,1.50
2022-08-07T21:00:57.649Z,1.70
2022-08-07T21:04:13.087Z,1.70
2022-08-07T21:07:04.542Z,1.70
2022-08-07T21:10:04.130Z,1.60
2022-08-07T21:12:57.230Z,1.70
2022-08-07T21:16:00.604Z,1.60
2022-08-07T21:18:53.245Z,1.60
2022-08-07T21:21:49.219Z,1.57
2022-08-07T21:25:04.802Z,1.97
2022-08-07T21:28:09.038Z,2.23
2022-08-07T21:31:03.846Z,1.53
2022-08-07T21:34:04.335Z,1.37
2022-08-07T21:37:01.603Z,1.73
2022-08-07T21:39:54.754Z,2.00
2022-08-07T21:42:53.027Z,1.50
2022-08-07T21:46:10.418Z,1.40
2022-08-07T21:48:58.126Z,1.70
2022-08-07T21:52:00.803Z,1.40
2022-08-07T21:54:57.024Z,1.50
2022-08-07T21:57:54.652Z,2.57
2022-08-07T22:00:48.074Z,2.17
2022-08-07T22:03:42.140Z,1.70
2022-08-07T22:06:34.751Z,1.60
2022-08-07T22:09:26.401Z,1.87
2022-08-07T22:12:24.875Z,1.60
2022-08-07T22:16:40.195Z,1.80
2022-08-07T22:18:30.182Z,2.43
2022-08-07T22:21:23.161Z,1.90
2022-08-07T22:24:16.809Z,1.60
2022-08-07T22:27:10.198Z,1.93
2022-08-07T22:30:03.961Z,1.80
2022-08-07T22:33:05.387Z,2.20
2022-08-07T22:36:00.782Z,1.60
2022-08-07T22:38:53.053Z,2.07
2022-08-07T22:42:04.023Z,1.73
2022-08-07T22:44:59.723Z,1.77
2022-08-07T22:48:31.695Z,1.80
2022-08-07T22:51:31.851Z,2.03
2022-08-07T22:54:38.430Z,1.70
2022-08-07T22:57:46.709Z,1.53
2022-08-07T23:00:45.876Z,1.83
2022-08-07T23:03:58.418Z,1.80
2022-08-07T23:06:56.017Z,1.80
2022-08-07T23:10:03.381Z,1.80
2022-08-07T23:13:08.684Z,1.40
2022-08-07T23:16:05.785Z,1.90
2022-08-07T23:19:16.293Z,1.67
2022-08-07T23:22:10.673Z,2.30
2022-08-07T23:25:10.013Z,1.80
2022-08-07T23:28:28.429Z,1.90
2022-08-07T23:32:49.325Z,1.73
2022-08-07T23:34:54.995Z,1.90
2022-08-07T23:38:05.284Z,1.67
2022-08-07T23:41:03.824Z,1.80
2022-08-07T23:44:02.456Z,1.83
2022-08-07T23:47:02.986Z,1.80
2022-08-07T23:50:17.982Z,1.57
2022-08-07T23:53:16.750Z,1.90
2022-08-07T23:56:12.139Z,2.10
